sensor_id;sensor_type;location;lat;lon;timestamp;P1;durP1;ratioP1;P2;durP2;ratioP2
70532;SDS011;58088;51.186;17.130;2023-05-31T00:00:29;8.00;;;2.70;;
70532;SDS011;58088;51.186;17.130;2023-05-31T00:02:55;8.10;;;2.80;;
70532;SDS011;58088;51.186;17.130;2023-05-31T00:05:21;7.60;;;3.00;;
70532;SDS011;58088;51.186;17.130;2023-05-31T00:07:47;7.10;;;2.80;;
70532;SDS011;58088;51.186;17.130;2023-05-31T00:10:13;7.80;;;2.50;;
70532;SDS011;58088;51.186;17.130;2023-05-31T00:12:39;7.20;;;2.60;;
70532;SDS011;58088;51.186;17.130;2023-05-31T00:15:06;9.40;;;2.90;;
70532;SDS011;58088;51.186;17.130;2023-05-31T00:17:32;6.50;;;2.40;;
70532;SDS011;58088;51.186;17.130;2023-05-31T00:19:58;6.20;;;2.30;;
70532;SDS011;58088;51.186;17.130;2023-05-31T00:22:24;8.00;;;2.50;;
70532;SDS011;58088;51.186;17.130;2023-05-31T00:24:50;8.90;;;2.80;;
70532;SDS011;58088;51.186;17.130;2023-05-31T00:27:17;7.30;;;2.60;;
70532;SDS011;58088;51.186;17.130;2023-05-31T00:29:43;6.70;;;2.50;;
70532;SDS011;58088;51.186;17.130;2023-05-31T00:32:10;8.50;;;2.90;;
70532;SDS011;58088;51.186;17.130;2023-05-31T00:34:36;8.30;;;2.50;;
70532;SDS011;58088;51.186;17.130;2023-05-31T00:37:03;8.40;;;2.50;;
70532;SDS011;58088;51.186;17.130;2023-05-31T00:39:29;8.10;;;2.80;;
70532;SDS011;58088;51.186;17.130;2023-05-31T00:41:56;8.40;;;3.40;;
70532;SDS011;58088;51.186;17.130;2023-05-31T00:44:22;8.30;;;3.20;;
70532;SDS011;58088;51.186;17.130;2023-05-31T00:46:48;9.40;;;2.70;;
70532;SDS011;58088;51.186;17.130;2023-05-31T00:49:15;7.80;;;2.80;;
70532;SDS011;58088;51.186;17.130;2023-05-31T00:51:41;7.30;;;2.60;;
70532;SDS011;58088;51.186;17.130;2023-05-31T00:54:08;9.30;;;2.80;;
70532;SDS011;58088;51.186;17.130;2023-05-31T00:56:36;9.30;;;2.60;;
70532;SDS011;58088;51.186;17.130;2023-05-31T00:59:03;7.10;;;2.20;;
70532;SDS011;58088;51.186;17.130;2023-05-31T01:01:30;6.80;;;2.20;;
70532;SDS011;58088;51.186;17.130;2023-05-31T01:03:59;7.60;;;2.70;;
70532;SDS011;58088;51.186;17.130;2023-05-31T01:06:27;7.90;;;2.60;;
70532;SDS011;58088;51.186;17.130;2023-05-31T01:08:59;8.40;;;2.40;;
70532;SDS011;58088;51.186;17.130;2023-05-31T01:18:09;9.70;;;2.80;;
70532;SDS011;58088;51.186;17.130;2023-05-31T01:20:52;7.20;;;2.40;;
70532;SDS011;58088;51.186;17.130;2023-05-31T01:24:07;7.20;;;2.90;;
70532;SDS011;58088;51.186;17.130;2023-05-31T01:26:49;7.80;;;3.00;;
70532;SDS011;58088;51.186;17.130;2023-05-31T01:29:21;7.70;;;2.50;;
70532;SDS011;58088;51.186;17.130;2023-05-31T01:31:52;8.90;;;3.00;;
70532;SDS011;58088;51.186;17.130;2023-05-31T01:34:21;9.30;;;3.10;;
70532;SDS011;58088;51.186;17.130;2023-05-31T01:36:49;8.40;;;2.60;;
70532;SDS011;58088;51.186;17.130;2023-05-31T01:39:17;9.40;;;2.80;;
70532;SDS011;58088;51.186;17.130;2023-05-31T01:41:45;9.30;;;3.30;;
70532;SDS011;58088;51.186;17.130;2023-05-31T01:44:15;7.20;;;2.80;;
70532;SDS011;58088;51.186;17.130;2023-05-31T01:46:45;6.90;;;2.40;;
70532;SDS011;58088;51.186;17.130;2023-05-31T01:49:12;6.70;;;2.20;;
70532;SDS011;58088;51.186;17.130;2023-05-31T01:51:40;11.50;;;2.70;;
70532;SDS011;58088;51.186;17.130;2023-05-31T01:54:07;7.90;;;2.20;;
70532;SDS011;58088;51.186;17.130;2023-05-31T01:56:36;8.90;;;2.60;;
70532;SDS011;58088;51.186;17.130;2023-05-31T01:59:07;9.30;;;2.60;;
70532;SDS011;58088;51.186;17.130;2023-05-31T02:02:10;7.50;;;2.50;;
70532;SDS011;58088;51.186;17.130;2023-05-31T02:05:08;7.60;;;2.60;;
70532;SDS011;58088;51.186;17.130;2023-05-31T02:07:37;6.80;;;2.50;;
70532;SDS011;58088;51.186;17.130;2023-05-31T02:10:05;7.50;;;2.40;;
70532;SDS011;58088;51.186;17.130;2023-05-31T02:12:35;9.10;;;2.40;;
70532;SDS011;58088;51.186;17.130;2023-05-31T02:15:02;6.90;;;2.40;;
70532;SDS011;58088;51.186;17.130;2023-05-31T02:17:29;6.20;;;2.10;;
70532;SDS011;58088;51.186;17.130;2023-05-31T02:19:58;7.10;;;2.40;;
70532;SDS011;58088;51.186;17.130;2023-05-31T02:22:25;5.60;;;2.10;;
70532;SDS011;58088;51.186;17.130;2023-05-31T02:24:51;6.80;;;2.10;;
70532;SDS011;58088;51.186;17.130;2023-05-31T02:27:18;8.70;;;2.40;;
70532;SDS011;58088;51.186;17.130;2023-05-31T02:29:45;8.30;;;2.40;;
70532;SDS011;58088;51.186;17.130;2023-05-31T02:32:11;6.50;;;2.40;;
70532;SDS011;58088;51.186;17.130;2023-05-31T02:34:37;7.70;;;2.10;;
70532;SDS011;58088;51.186;17.130;2023-05-31T02:37:04;7.40;;;2.30;;
70532;SDS011;58088;51.186;17.130;2023-05-31T02:39:31;6.60;;;2.60;;
70532;SDS011;58088;51.186;17.130;2023-05-31T02:41:57;7.00;;;2.50;;
70532;SDS011;58088;51.186;17.130;2023-05-31T02:44:23;5.00;;;1.70;;
70532;SDS011;58088;51.186;17.130;2023-05-31T02:46:49;7.00;;;2.50;;
70532;SDS011;58088;51.186;17.130;2023-05-31T02:49:16;9.70;;;2.60;;
70532;SDS011;58088;51.186;17.130;2023-05-31T02:51:42;6.00;;;2.20;;
70532;SDS011;58088;51.186;17.130;2023-05-31T02:54:34;27.40;;;5.50;;
70532;SDS011;58088;51.186;17.130;2023-05-31T02:57:01;7.10;;;2.60;;
70532;SDS011;58088;51.186;17.130;2023-05-31T02:59:32;10.30;;;3.00;;
70532;SDS011;58088;51.186;17.130;2023-05-31T03:02:02;9.20;;;3.40;;
70532;SDS011;58088;51.186;17.130;2023-05-31T03:04:41;11.40;;;3.80;;
70532;SDS011;58088;51.186;17.130;2023-05-31T03:07:10;9.70;;;3.50;;
70532;SDS011;58088;51.186;17.130;2023-05-31T03:09:36;11.80;;;3.50;;
70532;SDS011;58088;51.186;17.130;2023-05-31T03:12:03;8.90;;;3.20;;
70532;SDS011;58088;51.186;17.130;2023-05-31T03:14:32;8.80;;;3.10;;
70532;SDS011;58088;51.186;17.130;2023-05-31T03:16:58;8.10;;;3.20;;
70532;SDS011;58088;51.186;17.130;2023-05-31T03:19:24;9.10;;;2.70;;
70532;SDS011;58088;51.186;17.130;2023-05-31T03:21:52;7.50;;;2.70;;
70532;SDS011;58088;51.186;17.130;2023-05-31T03:24:19;9.20;;;2.80;;
70532;SDS011;58088;51.186;17.130;2023-05-31T03:26:47;9.90;;;2.90;;
70532;SDS011;58088;51.186;17.130;2023-05-31T03:29:14;8.00;;;2.60;;
70532;SDS011;58088;51.186;17.130;2023-05-31T03:31:40;7.80;;;3.10;;
70532;SDS011;58088;51.186;17.130;2023-05-31T03:34:08;9.80;;;3.60;;
70532;SDS011;58088;51.186;17.130;2023-05-31T03:36:34;11.20;;;4.20;;
70532;SDS011;58088;51.186;17.130;2023-05-31T03:39:05;8.90;;;3.40;;
70532;SDS011;58088;51.186;17.130;2023-05-31T03:41:31;8.10;;;3.30;;
70532;SDS011;58088;51.186;17.130;2023-05-31T03:43:57;10.90;;;3.30;;
70532;SDS011;58088;51.186;17.130;2023-05-31T03:46:24;9.20;;;3.30;;
70532;SDS011;58088;51.186;17.130;2023-05-31T03:48:50;8.40;;;3.30;;
70532;SDS011;58088;51.186;17.130;2023-05-31T03:51:17;9.50;;;3.10;;
70532;SDS011;58088;51.186;17.130;2023-05-31T03:53:44;9.70;;;3.70;;
70532;SDS011;58088;51.186;17.130;2023-05-31T03:56:11;8.70;;;3.80;;
70532;SDS011;58088;51.186;17.130;2023-05-31T03:58:37;12.30;;;4.30;;
70532;SDS011;58088;51.186;17.130;2023-05-31T04:01:04;8.90;;;4.20;;
70532;SDS011;58088;51.186;17.130;2023-05-31T04:03:30;9.40;;;4.10;;
70532;SDS011;58088;51.186;17.130;2023-05-31T04:05:57;9.10;;;3.90;;
70532;SDS011;58088;51.186;17.130;2023-05-31T04:08:23;7.80;;;3.80;;
70532;SDS011;58088;51.186;17.130;2023-05-31T04:10:49;9.60;;;3.80;;
70532;SDS011;58088;51.186;17.130;2023-05-31T04:13:17;9.00;;;3.90;;
70532;SDS011;58088;51.186;17.130;2023-05-31T04:15:44;9.60;;;3.80;;
70532;SDS011;58088;51.186;17.130;2023-05-31T04:18:10;10.20;;;3.90;;
70532;SDS011;58088;51.186;17.130;2023-05-31T04:20:36;10.80;;;4.40;;
70532;SDS011;58088;51.186;17.130;2023-05-31T04:23:03;9.20;;;3.70;;
70532;SDS011;58088;51.186;17.130;2023-05-31T04:25:29;8.80;;;3.70;;
70532;SDS011;58088;51.186;17.130;2023-05-31T04:27:57;8.00;;;3.80;;
70532;SDS011;58088;51.186;17.130;2023-05-31T04:30:23;10.10;;;3.60;;
70532;SDS011;58088;51.186;17.130;2023-05-31T04:32:50;8.40;;;4.10;;
70532;SDS011;58088;51.186;17.130;2023-05-31T04:35:18;10.10;;;4.30;;
70532;SDS011;58088;51.186;17.130;2023-05-31T04:37:46;10.30;;;4.00;;
70532;SDS011;58088;51.186;17.130;2023-05-31T04:40:17;8.30;;;3.80;;
70532;SDS011;58088;51.186;17.130;2023-05-31T04:42:46;8.40;;;4.10;;
70532;SDS011;58088;51.186;17.130;2023-05-31T04:45:22;9.40;;;4.20;;
70532;SDS011;58088;51.186;17.130;2023-05-31T04:47:50;9.80;;;4.10;;
70532;SDS011;58088;51.186;17.130;2023-05-31T04:50:17;9.20;;;3.90;;
70532;SDS011;58088;51.186;17.130;2023-05-31T04:52:45;10.30;;;3.90;;
70532;SDS011;58088;51.186;17.130;2023-05-31T04:55:11;8.00;;;4.00;;
70532;SDS011;58088;51.186;17.130;2023-05-31T04:57:37;8.60;;;4.20;;
70532;SDS011;58088;51.186;17.130;2023-05-31T05:00:05;10.50;;;3.90;;
70532;SDS011;58088;51.186;17.130;2023-05-31T05:02:48;11.10;;;4.00;;
70532;SDS011;58088;51.186;17.130;2023-05-31T05:05:15;10.20;;;3.50;;
70532;SDS011;58088;51.186;17.130;2023-05-31T05:07:43;9.00;;;3.20;;
70532;SDS011;58088;51.186;17.130;2023-05-31T05:10:09;12.30;;;3.30;;
70532;SDS011;58088;51.186;17.130;2023-05-31T05:12:36;8.50;;;3.40;;
70532;SDS011;58088;51.186;17.130;2023-05-31T05:15:02;7.60;;;3.40;;
70532;SDS011;58088;51.186;17.130;2023-05-31T05:17:28;9.70;;;2.90;;
70532;SDS011;58088;51.186;17.130;2023-05-31T05:19:55;7.10;;;3.30;;
70532;SDS011;58088;51.186;17.130;2023-05-31T05:22:21;8.90;;;3.40;;
70532;SDS011;58088;51.186;17.130;2023-05-31T05:24:47;9.10;;;3.20;;
70532;SDS011;58088;51.186;17.130;2023-05-31T05:27:14;6.80;;;3.60;;
70532;SDS011;58088;51.186;17.130;2023-05-31T05:29:40;7.80;;;3.10;;
70532;SDS011;58088;51.186;17.130;2023-05-31T05:32:06;5.50;;;3.10;;
70532;SDS011;58088;51.186;17.130;2023-05-31T05:34:33;8.60;;;3.20;;
70532;SDS011;58088;51.186;17.130;2023-05-31T05:36:59;6.90;;;3.00;;
70532;SDS011;58088;51.186;17.130;2023-05-31T05:39:26;9.50;;;2.80;;
70532;SDS011;58088;51.186;17.130;2023-05-31T05:41:52;7.30;;;2.80;;
70532;SDS011;58088;51.186;17.130;2023-05-31T05:44:18;6.60;;;2.80;;
70532;SDS011;58088;51.186;17.130;2023-05-31T05:46:46;7.80;;;2.90;;
70532;SDS011;58088;51.186;17.130;2023-05-31T05:49:12;9.00;;;3.20;;
70532;SDS011;58088;51.186;17.130;2023-05-31T05:51:38;8.50;;;2.90;;
70532;SDS011;58088;51.186;17.130;2023-05-31T05:54:07;9.10;;;2.80;;
70532;SDS011;58088;51.186;17.130;2023-05-31T05:56:34;8.90;;;2.90;;
70532;SDS011;58088;51.186;17.130;2023-05-31T05:59:01;6.30;;;2.80;;
70532;SDS011;58088;51.186;17.130;2023-05-31T06:01:59;9.30;;;2.80;;
70532;SDS011;58088;51.186;17.130;2023-05-31T06:04:25;7.20;;;2.50;;
70532;SDS011;58088;51.186;17.130;2023-05-31T06:06:51;6.50;;;2.50;;
70532;SDS011;58088;51.186;17.130;2023-05-31T06:09:17;9.40;;;2.50;;
70532;SDS011;58088;51.186;17.130;2023-05-31T06:11:44;7.20;;;2.60;;
70532;SDS011;58088;51.186;17.130;2023-05-31T06:14:10;7.60;;;2.40;;
70532;SDS011;58088;51.186;17.130;2023-05-31T06:16:39;7.80;;;2.50;;
70532;SDS011;58088;51.186;17.130;2023-05-31T06:19:05;5.90;;;2.20;;
70532;SDS011;58088;51.186;17.130;2023-05-31T06:21:31;6.40;;;2.60;;
70532;SDS011;58088;51.186;17.130;2023-05-31T06:24:00;8.10;;;2.60;;
70532;SDS011;58088;51.186;17.130;2023-05-31T06:26:28;6.00;;;2.60;;
70532;SDS011;58088;51.186;17.130;2023-05-31T06:28:56;7.70;;;3.00;;
70532;SDS011;58088;51.186;17.130;2023-05-31T06:31:48;8.20;;;2.60;;
70532;SDS011;58088;51.186;17.130;2023-05-31T06:34:15;12.20;;;3.00;;
70532;SDS011;58088;51.186;17.130;2023-05-31T06:36:41;9.70;;;2.60;;
70532;SDS011;58088;51.186;17.130;2023-05-31T06:39:08;8.40;;;2.60;;
70532;SDS011;58088;51.186;17.130;2023-05-31T06:41:35;8.70;;;3.00;;
70532;SDS011;58088;51.186;17.130;2023-05-31T06:44:15;6.20;;;2.70;;
70532;SDS011;58088;51.186;17.130;2023-05-31T06:46:50;10.00;;;2.70;;
70532;SDS011;58088;51.186;17.130;2023-05-31T06:49:35;6.50;;;2.60;;
70532;SDS011;58088;51.186;17.130;2023-05-31T06:52:04;6.10;;;2.50;;
70532;SDS011;58088;51.186;17.130;2023-05-31T06:54:51;6.00;;;2.10;;
70532;SDS011;58088;51.186;17.130;2023-05-31T06:57:18;7.40;;;2.40;;
70532;SDS011;58088;51.186;17.130;2023-05-31T06:59:44;6.40;;;2.40;;
70532;SDS011;58088;51.186;17.130;2023-05-31T07:02:10;5.00;;;2.10;;
70532;SDS011;58088;51.186;17.130;2023-05-31T07:04:36;6.00;;;2.70;;
70532;SDS011;58088;51.186;17.130;2023-05-31T07:07:03;6.70;;;2.60;;
70532;SDS011;58088;51.186;17.130;2023-05-31T07:09:29;4.80;;;2.40;;
70532;SDS011;58088;51.186;17.130;2023-05-31T07:11:57;7.30;;;2.30;;
70532;SDS011;58088;51.186;17.130;2023-05-31T07:14:25;7.30;;;2.20;;
70532;SDS011;58088;51.186;17.130;2023-05-31T07:16:51;5.10;;;2.50;;
70532;SDS011;58088;51.186;17.130;2023-05-31T07:19:17;6.80;;;2.40;;
70532;SDS011;58088;51.186;17.130;2023-05-31T07:21:43;6.10;;;2.40;;
70532;SDS011;58088;51.186;17.130;2023-05-31T07:24:10;6.20;;;2.20;;
70532;SDS011;58088;51.186;17.130;2023-05-31T07:26:36;6.00;;;2.50;;
70532;SDS011;58088;51.186;17.130;2023-05-31T07:29:02;9.10;;;2.50;;
70532;SDS011;58088;51.186;17.130;2023-05-31T07:31:28;7.40;;;2.20;;
70532;SDS011;58088;51.186;17.130;2023-05-31T07:33:54;6.60;;;2.50;;
70532;SDS011;58088;51.186;17.130;2023-05-31T07:36:21;9.40;;;2.60;;
70532;SDS011;58088;51.186;17.130;2023-05-31T07:38:53;7.30;;;2.20;;
70532;SDS011;58088;51.186;17.130;2023-05-31T07:41:19;7.30;;;2.00;;
70532;SDS011;58088;51.186;17.130;2023-05-31T07:43:46;7.20;;;2.10;;
70532;SDS011;58088;51.186;17.130;2023-05-31T07:46:12;10.40;;;2.00;;
70532;SDS011;58088;51.186;17.130;2023-05-31T07:48:38;4.80;;;1.60;;
70532;SDS011;58088;51.186;17.130;2023-05-31T07:51:05;4.60;;;1.80;;
70532;SDS011;58088;51.186;17.130;2023-05-31T07:53:31;8.70;;;2.10;;
70532;SDS011;58088;51.186;17.130;2023-05-31T07:55:57;6.00;;;1.70;;
70532;SDS011;58088;51.186;17.130;2023-05-31T07:58:23;7.00;;;1.90;;
70532;SDS011;58088;51.186;17.130;2023-05-31T08:00:50;3.90;;;1.40;;
70532;SDS011;58088;51.186;17.130;2023-05-31T08:03:19;4.20;;;1.40;;
70532;SDS011;58088;51.186;17.130;2023-05-31T08:05:45;6.50;;;1.50;;
70532;SDS011;58088;51.186;17.130;2023-05-31T08:08:14;7.10;;;1.80;;
70532;SDS011;58088;51.186;17.130;2023-05-31T08:10:40;5.20;;;1.80;;
70532;SDS011;58088;51.186;17.130;2023-05-31T08:13:07;4.70;;;1.70;;
70532;SDS011;58088;51.186;17.130;2023-05-31T08:15:33;4.90;;;1.80;;
70532;SDS011;58088;51.186;17.130;2023-05-31T08:17:59;7.30;;;1.70;;
70532;SDS011;58088;51.186;17.130;2023-05-31T08:20:25;5.70;;;1.50;;
70532;SDS011;58088;51.186;17.130;2023-05-31T08:22:51;5.70;;;1.70;;
70532;SDS011;58088;51.186;17.130;2023-05-31T08:25:20;6.00;;;1.70;;
70532;SDS011;58088;51.186;17.130;2023-05-31T08:27:48;4.90;;;1.40;;
70532;SDS011;58088;51.186;17.130;2023-05-31T08:30:15;6.50;;;1.60;;
70532;SDS011;58088;51.186;17.130;2023-05-31T08:32:41;5.90;;;1.70;;
70532;SDS011;58088;51.186;17.130;2023-05-31T08:35:08;3.60;;;1.60;;
70532;SDS011;58088;51.186;17.130;2023-05-31T08:37:36;5.00;;;1.60;;
70532;SDS011;58088;51.186;17.130;2023-05-31T08:40:04;6.40;;;1.60;;
70532;SDS011;58088;51.186;17.130;2023-05-31T08:42:39;5.10;;;1.50;;
70532;SDS011;58088;51.186;17.130;2023-05-31T08:45:10;4.10;;;1.30;;
70532;SDS011;58088;51.186;17.130;2023-05-31T08:48:09;6.80;;;1.50;;
70532;SDS011;58088;51.186;17.130;2023-05-31T08:50:42;5.10;;;1.60;;
70532;SDS011;58088;51.186;17.130;2023-05-31T08:53:12;5.30;;;1.90;;
70532;SDS011;58088;51.186;17.130;2023-05-31T08:55:44;8.90;;;1.30;;
70532;SDS011;58088;51.186;17.130;2023-05-31T08:58:14;4.00;;;1.20;;
70532;SDS011;58088;51.186;17.130;2023-05-31T09:00:43;4.70;;;1.50;;
70532;SDS011;58088;51.186;17.130;2023-05-31T09:03:12;3.50;;;1.10;;
70532;SDS011;58088;51.186;17.130;2023-05-31T09:05:39;4.60;;;1.20;;
70532;SDS011;58088;51.186;17.130;2023-05-31T09:08:08;3.90;;;1.50;;
70532;SDS011;58088;51.186;17.130;2023-05-31T09:10:35;4.60;;;1.50;;
70532;SDS011;58088;51.186;17.130;2023-05-31T09:13:04;4.60;;;1.50;;
70532;SDS011;58088;51.186;17.130;2023-05-31T09:15:31;3.30;;;1.20;;
70532;SDS011;58088;51.186;17.130;2023-05-31T09:18:12;8.00;;;1.70;;
70532;SDS011;58088;51.186;17.130;2023-05-31T09:20:39;46.50;;;3.60;;
70532;SDS011;58088;51.186;17.130;2023-05-31T09:23:08;4.80;;;1.50;;
70532;SDS011;58088;51.186;17.130;2023-05-31T09:25:53;3.00;;;1.20;;
70532;SDS011;58088;51.186;17.130;2023-05-31T09:28:21;5.50;;;1.60;;
70532;SDS011;58088;51.186;17.130;2023-05-31T09:31:08;6.40;;;1.60;;
70532;SDS011;58088;51.186;17.130;2023-05-31T09:33:39;3.90;;;1.30;;
70532;SDS011;58088;51.186;17.130;2023-05-31T09:36:10;5.80;;;1.30;;
70532;SDS011;58088;51.186;17.130;2023-05-31T09:38:38;4.70;;;1.50;;
70532;SDS011;58088;51.186;17.130;2023-05-31T09:41:13;4.80;;;1.70;;
70532;SDS011;58088;51.186;17.130;2023-05-31T09:43:45;6.60;;;1.70;;
70532;SDS011;58088;51.186;17.130;2023-05-31T09:46:17;5.60;;;1.10;;
70532;SDS011;58088;51.186;17.130;2023-05-31T09:48:45;9.30;;;1.60;;
70532;SDS011;58088;51.186;17.130;2023-05-31T09:51:22;5.10;;;1.70;;
70532;SDS011;58088;51.186;17.130;2023-05-31T09:53:48;7.30;;;1.50;;
70532;SDS011;58088;51.186;17.130;2023-05-31T09:56:18;5.90;;;1.30;;
70532;SDS011;58088;51.186;17.130;2023-05-31T09:58:50;5.20;;;1.60;;
70532;SDS011;58088;51.186;17.130;2023-05-31T10:01:18;4.30;;;1.40;;
70532;SDS011;58088;51.186;17.130;2023-05-31T10:03:49;5.20;;;1.70;;
70532;SDS011;58088;51.186;17.130;2023-05-31T10:06:17;3.80;;;1.50;;
70532;SDS011;58088;51.186;17.130;2023-05-31T10:08:45;5.00;;;1.40;;
70532;SDS011;58088;51.186;17.130;2023-05-31T10:11:16;5.00;;;1.50;;
70532;SDS011;58088;51.186;17.130;2023-05-31T10:13:50;10.90;;;1.50;;
70532;SDS011;58088;51.186;17.130;2023-05-31T10:16:24;5.00;;;1.60;;
70532;SDS011;58088;51.186;17.130;2023-05-31T10:18:54;4.70;;;1.40;;
70532;SDS011;58088;51.186;17.130;2023-05-31T10:21:27;3.80;;;1.40;;
70532;SDS011;58088;51.186;17.130;2023-05-31T10:24:02;3.30;;;1.40;;
70532;SDS011;58088;51.186;17.130;2023-05-31T10:26:46;3.90;;;1.50;;
70532;SDS011;58088;51.186;17.130;2023-05-31T10:32:24;4.20;;;1.60;;
70532;SDS011;58088;51.186;17.130;2023-05-31T10:34:55;5.00;;;1.60;;
70532;SDS011;58088;51.186;17.130;2023-05-31T10:37:21;5.40;;;1.50;;
70532;SDS011;58088;51.186;17.130;2023-05-31T10:43:00;6.60;;;1.50;;
70532;SDS011;58088;51.186;17.130;2023-05-31T10:48:19;6.20;;;2.00;;
70532;SDS011;58088;51.186;17.130;2023-05-31T10:51:00;6.40;;;1.90;;
70532;SDS011;58088;51.186;17.130;2023-05-31T10:53:34;4.80;;;1.50;;
70532;SDS011;58088;51.186;17.130;2023-05-31T10:58:36;4.40;;;1.60;;
70532;SDS011;58088;51.186;17.130;2023-05-31T11:01:13;6.30;;;1.50;;
70532;SDS011;58088;51.186;17.130;2023-05-31T11:06:17;4.00;;;1.10;;
70532;SDS011;58088;51.186;17.130;2023-05-31T11:08:59;4.60;;;1.40;;
70532;SDS011;58088;51.186;17.130;2023-05-31T11:14:07;3.30;;;1.40;;
70532;SDS011;58088;51.186;17.130;2023-05-31T11:19:16;4.20;;;1.80;;
70532;SDS011;58088;51.186;17.130;2023-05-31T11:24:30;7.30;;;1.90;;
70532;SDS011;58088;51.186;17.130;2023-05-31T11:27:01;7.30;;;1.70;;
70532;SDS011;58088;51.186;17.130;2023-05-31T11:32:22;5.00;;;1.50;;
70532;SDS011;58088;51.186;17.130;2023-05-31T11:35:09;3.60;;;1.80;;
70532;SDS011;58088;51.186;17.130;2023-05-31T11:37:40;5.70;;;1.50;;
70532;SDS011;58088;51.186;17.130;2023-05-31T11:40:10;2.80;;;1.50;;
70532;SDS011;58088;51.186;17.130;2023-05-31T11:42:43;3.90;;;1.60;;
70532;SDS011;58088;51.186;17.130;2023-05-31T11:45:14;5.60;;;1.80;;
70532;SDS011;58088;51.186;17.130;2023-05-31T11:47:59;4.40;;;1.70;;
70532;SDS011;58088;51.186;17.130;2023-05-31T11:50:30;5.40;;;1.80;;
70532;SDS011;58088;51.186;17.130;2023-05-31T11:52:56;3.70;;;1.80;;
70532;SDS011;58088;51.186;17.130;2023-05-31T11:55:33;3.90;;;1.50;;
70532;SDS011;58088;51.186;17.130;2023-05-31T11:58:04;4.80;;;1.50;;
70532;SDS011;58088;51.186;17.130;2023-05-31T12:00:32;3.30;;;1.50;;
70532;SDS011;58088;51.186;17.130;2023-05-31T12:03:00;5.30;;;1.60;;
70532;SDS011;58088;51.186;17.130;2023-05-31T12:05:30;2.70;;;1.30;;
70532;SDS011;58088;51.186;17.130;2023-05-31T12:07:57;3.60;;;1.70;;
70532;SDS011;58088;51.186;17.130;2023-05-31T12:10:27;5.60;;;1.60;;
70532;SDS011;58088;51.186;17.130;2023-05-31T12:12:54;6.20;;;1.70;;
70532;SDS011;58088;51.186;17.130;2023-05-31T12:15:20;4.40;;;1.70;;
70532;SDS011;58088;51.186;17.130;2023-05-31T12:17:46;5.00;;;1.40;;
70532;SDS011;58088;51.186;17.130;2023-05-31T12:20:13;5.00;;;1.40;;
70532;SDS011;58088;51.186;17.130;2023-05-31T12:22:39;15.60;;;2.00;;
70532;SDS011;58088;51.186;17.130;2023-05-31T12:25:06;36.20;;;3.50;;
70532;SDS011;58088;51.186;17.130;2023-05-31T12:27:33;5.20;;;1.70;;
70532;SDS011;58088;51.186;17.130;2023-05-31T12:30:01;4.50;;;1.60;;
70532;SDS011;58088;51.186;17.130;2023-05-31T12:32:28;4.80;;;1.30;;
70532;SDS011;58088;51.186;17.130;2023-05-31T12:35:08;4.30;;;1.50;;
70532;SDS011;58088;51.186;17.130;2023-05-31T12:37:35;3.50;;;1.40;;
70532;SDS011;58088;51.186;17.130;2023-05-31T12:42:37;4.40;;;1.60;;
70532;SDS011;58088;51.186;17.130;2023-05-31T12:45:07;5.10;;;1.60;;
70532;SDS011;58088;51.186;17.130;2023-05-31T12:47:36;5.50;;;1.70;;
70532;SDS011;58088;51.186;17.130;2023-05-31T12:50:07;4.00;;;1.60;;
70532;SDS011;58088;51.186;17.130;2023-05-31T12:52:38;3.60;;;1.30;;
70532;SDS011;58088;51.186;17.130;2023-05-31T12:55:06;3.90;;;1.60;;
70532;SDS011;58088;51.186;17.130;2023-05-31T12:57:34;6.40;;;1.50;;
70532;SDS011;58088;51.186;17.130;2023-05-31T13:00:05;4.30;;;1.60;;
70532;SDS011;58088;51.186;17.130;2023-05-31T13:02:38;4.00;;;1.40;;
70532;SDS011;58088;51.186;17.130;2023-05-31T13:05:06;3.80;;;1.80;;
70532;SDS011;58088;51.186;17.130;2023-05-31T13:07:35;5.20;;;1.40;;
70532;SDS011;58088;51.186;17.130;2023-05-31T13:10:04;3.40;;;1.60;;
70532;SDS011;58088;51.186;17.130;2023-05-31T13:12:33;3.40;;;1.50;;
70532;SDS011;58088;51.186;17.130;2023-05-31T13:14:59;3.10;;;1.60;;
70532;SDS011;58088;51.186;17.130;2023-05-31T13:17:25;4.30;;;1.70;;
70532;SDS011;58088;51.186;17.130;2023-05-31T13:19:52;4.70;;;1.50;;
70532;SDS011;58088;51.186;17.130;2023-05-31T13:22:18;3.50;;;1.30;;
70532;SDS011;58088;51.186;17.130;2023-05-31T13:24:44;5.00;;;1.60;;
70532;SDS011;58088;51.186;17.130;2023-05-31T13:27:10;4.30;;;1.40;;
70532;SDS011;58088;51.186;17.130;2023-05-31T13:29:36;3.40;;;1.50;;
70532;SDS011;58088;51.186;17.130;2023-05-31T13:32:03;4.10;;;1.50;;
70532;SDS011;58088;51.186;17.130;2023-05-31T13:34:29;5.10;;;1.70;;
70532;SDS011;58088;51.186;17.130;2023-05-31T13:36:55;6.60;;;1.60;;
70532;SDS011;58088;51.186;17.130;2023-05-31T13:39:22;3.70;;;1.70;;
70532;SDS011;58088;51.186;17.130;2023-05-31T13:41:48;4.00;;;1.70;;
70532;SDS011;58088;51.186;17.130;2023-05-31T13:44:14;3.80;;;1.60;;
70532;SDS011;58088;51.186;17.130;2023-05-31T13:46:42;4.10;;;1.60;;
70532;SDS011;58088;51.186;17.130;2023-05-31T13:49:09;4.10;;;1.80;;
70532;SDS011;58088;51.186;17.130;2023-05-31T13:51:35;4.10;;;1.60;;
70532;SDS011;58088;51.186;17.130;2023-05-31T13:54:01;4.70;;;1.60;;
70532;SDS011;58088;51.186;17.130;2023-05-31T13:56:27;3.60;;;1.60;;
70532;SDS011;58088;51.186;17.130;2023-05-31T13:58:54;4.40;;;1.50;;
70532;SDS011;58088;51.186;17.130;2023-05-31T14:01:20;4.40;;;1.50;;
70532;SDS011;58088;51.186;17.130;2023-05-31T14:03:46;6.10;;;1.60;;
70532;SDS011;58088;51.186;17.130;2023-05-31T14:06:12;3.20;;;1.30;;
70532;SDS011;58088;51.186;17.130;2023-05-31T14:08:38;4.00;;;1.50;;
70532;SDS011;58088;51.186;17.130;2023-05-31T14:11:05;3.30;;;1.50;;
70532;SDS011;58088;51.186;17.130;2023-05-31T14:13:32;5.30;;;1.40;;
70532;SDS011;58088;51.186;17.130;2023-05-31T14:15:58;4.60;;;1.60;;
70532;SDS011;58088;51.186;17.130;2023-05-31T14:18:26;4.30;;;1.60;;
70532;SDS011;58088;51.186;17.130;2023-05-31T14:20:52;4.50;;;1.60;;
70532;SDS011;58088;51.186;17.130;2023-05-31T14:23:18;6.20;;;1.50;;
70532;SDS011;58088;51.186;17.130;2023-05-31T14:25:45;3.50;;;1.40;;
70532;SDS011;58088;51.186;17.130;2023-05-31T14:28:11;4.60;;;1.40;;
70532;SDS011;58088;51.186;17.130;2023-05-31T14:30:38;4.00;;;1.50;;
70532;SDS011;58088;51.186;17.130;2023-05-31T14:33:04;3.80;;;1.50;;
70532;SDS011;58088;51.186;17.130;2023-05-31T14:35:31;4.60;;;1.60;;
70532;SDS011;58088;51.186;17.130;2023-05-31T14:37:57;4.70;;;1.70;;
70532;SDS011;58088;51.186;17.130;2023-05-31T14:40:23;4.20;;;1.60;;
70532;SDS011;58088;51.186;17.130;2023-05-31T14:42:49;4.10;;;1.70;;
70532;SDS011;58088;51.186;17.130;2023-05-31T14:45:15;3.60;;;1.60;;
70532;SDS011;58088;51.186;17.130;2023-05-31T14:47:42;3.80;;;1.50;;
70532;SDS011;58088;51.186;17.130;2023-05-31T14:50:09;3.70;;;1.40;;
70532;SDS011;58088;51.186;17.130;2023-05-31T14:52:35;3.90;;;1.40;;
70532;SDS011;58088;51.186;17.130;2023-05-31T14:55:01;4.80;;;1.50;;
70532;SDS011;58088;51.186;17.130;2023-05-31T14:57:28;9.40;;;1.70;;
70532;SDS011;58088;51.186;17.130;2023-05-31T14:59:54;7.60;;;2.00;;
70532;SDS011;58088;51.186;17.130;2023-05-31T15:02:20;3.50;;;1.40;;
70532;SDS011;58088;51.186;17.130;2023-05-31T15:04:46;5.20;;;1.60;;
70532;SDS011;58088;51.186;17.130;2023-05-31T15:07:13;4.00;;;1.50;;
70532;SDS011;58088;51.186;17.130;2023-05-31T15:09:39;3.80;;;1.50;;
70532;SDS011;58088;51.186;17.130;2023-05-31T15:12:06;6.00;;;1.40;;
70532;SDS011;58088;51.186;17.130;2023-05-31T15:14:33;5.00;;;1.50;;
70532;SDS011;58088;51.186;17.130;2023-05-31T15:16:59;10.70;;;1.80;;